sensor_id;sensor_type;location;lat;lon;timestamp;P1;durP1;ratioP1;P2;durP2;ratioP2
20122;SDS011;10222;50.848;4.336;2023-08-17T00:02:10;6.65;;;1.20;;
20122;SDS011;10222;50.848;4.336;2023-08-17T00:04:38;2.33;;;1.38;;
20122;SDS011;10222;50.848;4.336;2023-08-17T00:07:05;3.42;;;1.20;;
20122;SDS011;10222;50.848;4.336;2023-08-17T00:09:32;2.00;;;1.45;;
20122;SDS011;10222;50.848;4.336;2023-08-17T00:11:58;1.98;;;1.27;;
20122;SDS011;10222;50.848;4.336;2023-08-17T00:14:24;2.08;;;1.20;;
20122;SDS011;10222;50.848;4.336;2023-08-17T00:16:50;3.72;;;1.67;;
20122;SDS011;10222;50.848;4.336;2023-08-17T00:19:17;1.92;;;1.10;;
20122;SDS011;10222;50.848;4.336;2023-08-17T00:21:44;1.42;;;1.30;;
20122;SDS011;10222;50.848;4.336;2023-08-17T00:24:10;1.95;;;1.40;;
20122;SDS011;10222;50.848;4.336;2023-08-17T00:26:37;2.38;;;1.60;;
20122;SDS011;10222;50.848;4.336;2023-08-17T00:29:03;4.80;;;1.85;;
20122;SDS011;10222;50.848;4.336;2023-08-17T00:31:30;2.20;;;1.50;;
20122;SDS011;10222;50.848;4.336;2023-08-17T00:33:56;5.57;;;1.80;;
20122;SDS011;10222;50.848;4.336;2023-08-17T00:36:23;3.33;;;1.55;;
20122;SDS011;10222;50.848;4.336;2023-08-17T00:38:49;3.83;;;1.77;;
20122;SDS011;10222;50.848;4.336;2023-08-17T00:41:15;2.92;;;1.40;;
20122;SDS011;10222;50.848;4.336;2023-08-17T00:43:40;3.20;;;1.80;;
20122;SDS011;10222;50.848;4.336;2023-08-17T00:46:07;4.32;;;1.65;;
20122;SDS011;10222;50.848;4.336;2023-08-17T00:48:34;4.65;;;2.20;;
20122;SDS011;10222;50.848;4.336;2023-08-17T00:51:00;3.97;;;1.50;;
20122;SDS011;10222;50.848;4.336;2023-08-17T00:53:29;3.55;;;1.50;;
20122;SDS011;10222;50.848;4.336;2023-08-17T00:55:55;3.30;;;1.80;;
20122;SDS011;10222;50.848;4.336;2023-08-17T00:58:22;5.10;;;2.03;;
20122;SDS011;10222;50.848;4.336;2023-08-17T01:00:48;3.33;;;1.98;;
20122;SDS011;10222;50.848;4.336;2023-08-17T01:03:15;2.30;;;1.60;;
20122;SDS011;10222;50.848;4.336;2023-08-17T01:05:41;3.10;;;1.58;;
20122;SDS011;10222;50.848;4.336;2023-08-17T01:08:07;4.90;;;1.80;;
20122;SDS011;10222;50.848;4.336;2023-08-17T01:13:09;3.30;;;1.90;;
20122;SDS011;10222;50.848;4.336;2023-08-17T01:15:36;5.25;;;1.90;;
20122;SDS011;10222;50.848;4.336;2023-08-17T01:18:17;2.50;;;2.00;;
20122;SDS011;10222;50.848;4.336;2023-08-17T01:20:50;5.88;;;2.40;;
20122;SDS011;10222;50.848;4.336;2023-08-17T01:23:18;4.10;;;1.90;;
20122;SDS011;10222;50.848;4.336;2023-08-17T01:25:44;3.45;;;1.90;;
20122;SDS011;10222;50.848;4.336;2023-08-17T01:28:10;4.20;;;2.10;;
20122;SDS011;10222;50.848;4.336;2023-08-17T01:33:18;3.38;;;2.00;;
20122;SDS011;10222;50.848;4.336;2023-08-17T01:35:46;3.10;;;2.00;;
20122;SDS011;10222;50.848;4.336;2023-08-17T01:38:17;2.60;;;2.10;;
20122;SDS011;10222;50.848;4.336;2023-08-17T01:40:47;5.07;;;2.40;;
20122;SDS011;10222;50.848;4.336;2023-08-17T01:43:14;3.97;;;2.40;;
20122;SDS011;10222;50.848;4.336;2023-08-17T01:45:40;2.50;;;1.83;;
20122;SDS011;10222;50.848;4.336;2023-08-17T01:48:06;4.50;;;1.90;;
20122;SDS011;10222;50.848;4.336;2023-08-17T01:50:32;5.47;;;2.20;;
20122;SDS011;10222;50.848;4.336;2023-08-17T01:52:58;4.13;;;2.00;;
20122;SDS011;10222;50.848;4.336;2023-08-17T01:55:24;3.57;;;2.40;;
20122;SDS011;10222;50.848;4.336;2023-08-17T01:57:51;3.72;;;2.50;;
20122;SDS011;10222;50.848;4.336;2023-08-17T02:00:17;3.67;;;2.75;;
20122;SDS011;10222;50.848;4.336;2023-08-17T02:02:44;2.80;;;2.03;;
20122;SDS011;10222;50.848;4.336;2023-08-17T02:05:10;2.53;;;1.93;;
20122;SDS011;10222;50.848;4.336;2023-08-17T02:07:36;3.03;;;2.10;;
20122;SDS011;10222;50.848;4.336;2023-08-17T02:10:02;3.42;;;2.20;;
20122;SDS011;10222;50.848;4.336;2023-08-17T02:12:29;4.00;;;2.10;;
20122;SDS011;10222;50.848;4.336;2023-08-17T02:14:55;4.97;;;2.10;;
20122;SDS011;10222;50.848;4.336;2023-08-17T02:17:21;3.50;;;1.80;;
20122;SDS011;10222;50.848;4.336;2023-08-17T02:19:47;3.10;;;1.88;;
20122;SDS011;10222;50.848;4.336;2023-08-17T02:22:14;2.33;;;1.90;;
20122;SDS011;10222;50.848;4.336;2023-08-17T02:24:40;3.80;;;1.90;;
20122;SDS011;10222;50.848;4.336;2023-08-17T02:27:06;2.30;;;2.00;;
20122;SDS011;10222;50.848;4.336;2023-08-17T02:29:32;3.33;;;2.03;;
20122;SDS011;10222;50.848;4.336;2023-08-17T02:31:58;3.50;;;1.80;;
20122;SDS011;10222;50.848;4.336;2023-08-17T02:34:24;2.60;;;1.97;;
20122;SDS011;10222;50.848;4.336;2023-08-17T02:36:50;3.07;;;2.07;;
20122;SDS011;10222;50.848;4.336;2023-08-17T02:39:17;3.03;;;1.77;;
20122;SDS011;10222;50.848;4.336;2023-08-17T02:41:43;2.75;;;1.98;;
20122;SDS011;10222;50.848;4.336;2023-08-17T02:44:10;2.83;;;2.20;;
20122;SDS011;10222;50.848;4.336;2023-08-17T02:46:36;2.90;;;1.80;;
20122;SDS011;10222;50.848;4.336;2023-08-17T02:49:03;3.30;;;1.90;;
20122;SDS011;10222;50.848;4.336;2023-08-17T02:51:29;4.57;;;2.17;;
20122;SDS011;10222;50.848;4.336;2023-08-17T02:53:55;5.13;;;1.90;;
20122;SDS011;10222;50.848;4.336;2023-08-17T02:56:21;3.63;;;2.20;;
20122;SDS011;10222;50.848;4.336;2023-08-17T02:58:47;3.60;;;2.07;;
20122;SDS011;10222;50.848;4.336;2023-08-17T03:01:13;3.87;;;1.90;;
20122;SDS011;10222;50.848;4.336;2023-08-17T03:03:39;4.15;;;2.08;;
20122;SDS011;10222;50.848;4.336;2023-08-17T03:06:05;3.63;;;2.03;;
20122;SDS011;10222;50.848;4.336;2023-08-17T03:08:31;7.43;;;1.83;;
20122;SDS011;10222;50.848;4.336;2023-08-17T03:10:57;4.33;;;2.43;;
20122;SDS011;10222;50.848;4.336;2023-08-17T03:13:23;3.55;;;1.95;;
20122;SDS011;10222;50.848;4.336;2023-08-17T03:15:49;6.10;;;2.10;;
20122;SDS011;10222;50.848;4.336;2023-08-17T03:18:15;6.03;;;2.58;;
20122;SDS011;10222;50.848;4.336;2023-08-17T03:20:41;6.90;;;2.27;;
20122;SDS011;10222;50.848;4.336;2023-08-17T03:23:07;6.63;;;2.33;;
20122;SDS011;10222;50.848;4.336;2023-08-17T03:25:33;3.75;;;2.17;;
20122;SDS011;10222;50.848;4.336;2023-08-17T03:28:00;3.67;;;2.17;;
20122;SDS011;10222;50.848;4.336;2023-08-17T03:30:26;2.20;;;1.83;;
20122;SDS011;10222;50.848;4.336;2023-08-17T03:32:52;3.10;;;2.17;;
20122;SDS011;10222;50.848;4.336;2023-08-17T03:35:19;3.00;;;1.92;;
20122;SDS011;10222;50.848;4.336;2023-08-17T03:37:45;4.33;;;2.30;;
20122;SDS011;10222;50.848;4.336;2023-08-17T03:40:11;3.85;;;1.83;;
20122;SDS011;10222;50.848;4.336;2023-08-17T03:42:37;2.97;;;2.23;;
20122;SDS011;10222;50.848;4.336;2023-08-17T03:45:03;3.90;;;2.30;;
20122;SDS011;10222;50.848;4.336;2023-08-17T03:47:30;4.00;;;2.00;;
20122;SDS011;10222;50.848;4.336;2023-08-17T03:49:56;2.87;;;2.03;;
20122;SDS011;10222;50.848;4.336;2023-08-17T03:52:22;3.27;;;1.87;;
20122;SDS011;10222;50.848;4.336;2023-08-17T03:54:48;3.75;;;2.30;;
20122;SDS011;10222;50.848;4.336;2023-08-17T03:57:14;5.77;;;2.27;;
20122;SDS011;10222;50.848;4.336;2023-08-17T03:59:41;2.67;;;1.67;;
20122;SDS011;10222;50.848;4.336;2023-08-17T04:02:07;5.47;;;2.00;;
20122;SDS011;10222;50.848;4.336;2023-08-17T04:04:33;4.17;;;1.90;;
20122;SDS011;10222;50.848;4.336;2023-08-17T04:06:59;4.83;;;2.47;;
20122;SDS011;10222;50.848;4.336;2023-08-17T04:09:25;3.50;;;1.93;;
20122;SDS011;10222;50.848;4.336;2023-08-17T04:11:51;4.53;;;2.13;;
20122;SDS011;10222;50.848;4.336;2023-08-17T04:14:17;3.63;;;1.97;;
20122;SDS011;10222;50.848;4.336;2023-08-17T04:16:43;5.93;;;2.80;;
20122;SDS011;10222;50.848;4.336;2023-08-17T04:19:09;3.30;;;1.90;;
20122;SDS011;10222;50.848;4.336;2023-08-17T04:21:35;4.27;;;2.10;;
20122;SDS011;10222;50.848;4.336;2023-08-17T04:24:01;6.40;;;2.40;;
20122;SDS011;10222;50.848;4.336;2023-08-17T04:26:27;4.97;;;2.07;;
20122;SDS011;10222;50.848;4.336;2023-08-17T04:28:53;5.90;;;2.23;;
20122;SDS011;10222;50.848;4.336;2023-08-17T04:31:19;2.27;;;1.80;;
20122;SDS011;10222;50.848;4.336;2023-08-17T04:33:45;6.60;;;2.17;;
20122;SDS011;10222;50.848;4.336;2023-08-17T04:36:11;3.43;;;2.20;;
20122;SDS011;10222;50.848;4.336;2023-08-17T04:38:37;6.37;;;2.07;;
20122;SDS011;10222;50.848;4.336;2023-08-17T04:41:03;3.63;;;2.00;;
20122;SDS011;10222;50.848;4.336;2023-08-17T04:43:29;2.67;;;2.00;;
20122;SDS011;10222;50.848;4.336;2023-08-17T04:45:55;3.73;;;2.63;;
20122;SDS011;10222;50.848;4.336;2023-08-17T04:48:21;3.90;;;2.40;;
20122;SDS011;10222;50.848;4.336;2023-08-17T04:50:48;3.77;;;1.83;;
20122;SDS011;10222;50.848;4.336;2023-08-17T04:53:14;4.63;;;2.00;;
20122;SDS011;10222;50.848;4.336;2023-08-17T04:55:40;4.13;;;1.90;;
20122;SDS011;10222;50.848;4.336;2023-08-17T04:58:06;2.80;;;1.98;;
20122;SDS011;10222;50.848;4.336;2023-08-17T05:00:33;3.97;;;2.20;;
20122;SDS011;10222;50.848;4.336;2023-08-17T05:02:59;3.37;;;2.00;;
20122;SDS011;10222;50.848;4.336;2023-08-17T05:05:25;5.00;;;2.50;;
20122;SDS011;10222;50.848;4.336;2023-08-17T05:07:52;2.97;;;2.03;;
20122;SDS011;10222;50.848;4.336;2023-08-17T05:10:18;3.57;;;2.03;;
20122;SDS011;10222;50.848;4.336;2023-08-17T05:12:44;3.97;;;2.10;;
20122;SDS011;10222;50.848;4.336;2023-08-17T05:15:11;6.27;;;2.90;;
20122;SDS011;10222;50.848;4.336;2023-08-17T05:17:37;4.07;;;2.50;;
20122;SDS011;10222;50.848;4.336;2023-08-17T05:20:04;5.30;;;2.50;;
20122;SDS011;10222;50.848;4.336;2023-08-17T05:22:30;5.93;;;2.70;;
20122;SDS011;10222;50.848;4.336;2023-08-17T05:24:56;3.33;;;1.97;;
20122;SDS011;10222;50.848;4.336;2023-08-17T05:27:22;3.00;;;1.90;;
20122;SDS011;10222;50.848;4.336;2023-08-17T05:29:48;3.47;;;2.33;;
20122;SDS011;10222;50.848;4.336;2023-08-17T05:32:14;4.27;;;2.27;;
20122;SDS011;10222;50.848;4.336;2023-08-17T05:34:40;3.27;;;2.00;;
20122;SDS011;10222;50.848;4.336;2023-08-17T05:37:07;3.77;;;1.90;;
20122;SDS011;10222;50.848;4.336;2023-08-17T05:39:33;6.80;;;2.13;;
20122;SDS011;10222;50.848;4.336;2023-08-17T05:41:59;11.20;;;2.50;;
20122;SDS011;10222;50.848;4.336;2023-08-17T05:44:25;3.92;;;2.35;;
20122;SDS011;10222;50.848;4.336;2023-08-17T05:46:51;13.18;;;2.22;;
20122;SDS011;10222;50.848;4.336;2023-08-17T05:49:17;4.60;;;2.20;;
20122;SDS011;10222;50.848;4.336;2023-08-17T05:51:43;2.55;;;1.70;;
20122;SDS011;10222;50.848;4.336;2023-08-17T05:54:09;4.37;;;2.30;;
20122;SDS011;10222;50.848;4.336;2023-08-17T05:56:35;5.70;;;2.03;;
20122;SDS011;10222;50.848;4.336;2023-08-17T05:59:01;2.93;;;2.10;;
20122;SDS011;10222;50.848;4.336;2023-08-17T06:01:27;5.00;;;1.80;;
20122;SDS011;10222;50.848;4.336;2023-08-17T06:03:53;4.43;;;2.13;;
20122;SDS011;10222;50.848;4.336;2023-08-17T06:06:19;6.63;;;2.05;;
20122;SDS011;10222;50.848;4.336;2023-08-17T06:08:45;3.47;;;1.88;;
20122;SDS011;10222;50.848;4.336;2023-08-17T06:11:11;4.10;;;1.98;;
20122;SDS011;10222;50.848;4.336;2023-08-17T06:13:37;3.43;;;2.00;;
20122;SDS011;10222;50.848;4.336;2023-08-17T06:16:03;3.70;;;2.20;;
20122;SDS011;10222;50.848;4.336;2023-08-17T06:18:29;6.33;;;2.27;;
20122;SDS011;10222;50.848;4.336;2023-08-17T06:20:56;3.63;;;2.15;;
20122;SDS011;10222;50.848;4.336;2023-08-17T06:23:23;2.42;;;1.70;;
20122;SDS011;10222;50.848;4.336;2023-08-17T06:25:50;3.20;;;2.08;;
20122;SDS011;10222;50.848;4.336;2023-08-17T06:28:16;5.27;;;2.20;;
20122;SDS011;10222;50.848;4.336;2023-08-17T06:30:42;4.10;;;2.22;;
20122;SDS011;10222;50.848;4.336;2023-08-17T06:33:08;6.47;;;2.45;;
20122;SDS011;10222;50.848;4.336;2023-08-17T06:35:34;5.25;;;2.10;;
20122;SDS011;10222;50.848;4.336;2023-08-17T06:38:00;4.95;;;2.40;;
20122;SDS011;10222;50.848;4.336;2023-08-17T06:40:26;8.25;;;2.88;;
20122;SDS011;10222;50.848;4.336;2023-08-17T06:42:53;5.15;;;2.22;;
20122;SDS011;10222;50.848;4.336;2023-08-17T06:45:20;3.90;;;1.90;;
20122;SDS011;10222;50.848;4.336;2023-08-17T06:47:47;5.25;;;2.20;;
20122;SDS011;10222;50.848;4.336;2023-08-17T06:50:13;3.97;;;2.50;;
20122;SDS011;10222;50.848;4.336;2023-08-17T06:52:40;3.67;;;2.00;;
20122;SDS011;10222;50.848;4.336;2023-08-17T06:55:06;7.23;;;2.57;;
20122;SDS011;10222;50.848;4.336;2023-08-17T06:57:32;2.95;;;2.15;;
20122;SDS011;10222;50.848;4.336;2023-08-17T06:59:58;6.13;;;2.43;;
20122;SDS011;10222;50.848;4.336;2023-08-17T07:02:24;4.83;;;2.83;;
20122;SDS011;10222;50.848;4.336;2023-08-17T07:04:50;4.93;;;2.33;;
20122;SDS011;10222;50.848;4.336;2023-08-17T07:07:16;6.57;;;2.10;;
20122;SDS011;10222;50.848;4.336;2023-08-17T07:09:42;7.10;;;2.85;;
20122;SDS011;10222;50.848;4.336;2023-08-17T07:12:08;4.93;;;2.43;;
20122;SDS011;10222;50.848;4.336;2023-08-17T07:14:34;4.22;;;2.72;;
20122;SDS011;10222;50.848;4.336;2023-08-17T07:17:01;3.83;;;2.70;;
20122;SDS011;10222;50.848;4.336;2023-08-17T07:19:27;6.83;;;2.93;;
20122;SDS011;10222;50.848;4.336;2023-08-17T07:21:53;6.05;;;2.83;;
20122;SDS011;10222;50.848;4.336;2023-08-17T07:24:19;8.20;;;2.97;;
20122;SDS011;10222;50.848;4.336;2023-08-17T07:26:45;6.18;;;3.17;;
20122;SDS011;10222;50.848;4.336;2023-08-17T07:29:11;8.80;;;2.87;;
20122;SDS011;10222;50.848;4.336;2023-08-17T07:31:38;4.82;;;2.80;;
20122;SDS011;10222;50.848;4.336;2023-08-17T07:34:05;3.83;;;2.80;;
20122;SDS011;10222;50.848;4.336;2023-08-17T07:36:31;6.88;;;3.40;;
20122;SDS011;10222;50.848;4.336;2023-08-17T07:38:58;6.38;;;3.33;;
20122;SDS011;10222;50.848;4.336;2023-08-17T07:41:24;8.00;;;3.88;;
20122;SDS011;10222;50.848;4.336;2023-08-17T07:43:50;7.30;;;3.17;;
20122;SDS011;10222;50.848;4.336;2023-08-17T07:46:16;6.27;;;3.60;;
20122;SDS011;10222;50.848;4.336;2023-08-17T07:48:42;4.35;;;2.88;;
20122;SDS011;10222;50.848;4.336;2023-08-17T07:51:08;8.77;;;3.13;;
20122;SDS011;10222;50.848;4.336;2023-08-17T07:53:34;7.03;;;2.75;;
20122;SDS011;10222;50.848;4.336;2023-08-17T07:56:00;4.30;;;2.30;;
20122;SDS011;10222;50.848;4.336;2023-08-17T07:58:27;5.88;;;2.20;;
20122;SDS011;10222;50.848;4.336;2023-08-17T08:00:53;5.32;;;2.97;;
20122;SDS011;10222;50.848;4.336;2023-08-17T08:03:19;4.88;;;2.92;;
20122;SDS011;10222;50.848;4.336;2023-08-17T08:05:45;5.05;;;2.90;;
20122;SDS011;10222;50.848;4.336;2023-08-17T08:08:11;5.53;;;3.28;;
20122;SDS011;10222;50.848;4.336;2023-08-17T08:10:37;8.60;;;3.50;;
20122;SDS011;10222;50.848;4.336;2023-08-17T08:13:03;6.75;;;3.65;;
20122;SDS011;10222;50.848;4.336;2023-08-17T08:15:29;8.27;;;3.00;;
20122;SDS011;10222;50.848;4.336;2023-08-17T08:17:55;5.63;;;3.22;;
20122;SDS011;10222;50.848;4.336;2023-08-17T08:20:21;6.88;;;3.45;;
20122;SDS011;10222;50.848;4.336;2023-08-17T08:22:47;5.05;;;3.17;;
20122;SDS011;10222;50.848;4.336;2023-08-17T08:25:13;6.72;;;3.42;;
20122;SDS011;10222;50.848;4.336;2023-08-17T08:27:39;6.13;;;3.28;;
20122;SDS011;10222;50.848;4.336;2023-08-17T08:30:06;7.85;;;3.58;;
20122;SDS011;10222;50.848;4.336;2023-08-17T08:32:32;4.93;;;2.95;;
20122;SDS011;10222;50.848;4.336;2023-08-17T08:34:58;7.53;;;2.97;;
20122;SDS011;10222;50.848;4.336;2023-08-17T08:37:24;6.47;;;3.25;;
20122;SDS011;10222;50.848;4.336;2023-08-17T08:39:51;7.97;;;3.50;;
20122;SDS011;10222;50.848;4.336;2023-08-17T08:42:18;6.18;;;3.22;;
20122;SDS011;10222;50.848;4.336;2023-08-17T08:44:44;4.80;;;3.42;;
20122;SDS011;10222;50.848;4.336;2023-08-17T08:47:11;7.35;;;3.80;;
20122;SDS011;10222;50.848;4.336;2023-08-17T08:49:38;7.18;;;3.70;;
20122;SDS011;10222;50.848;4.336;2023-08-17T08:52:06;7.22;;;4.13;;
20122;SDS011;10222;50.848;4.336;2023-08-17T08:54:32;8.15;;;4.15;;
20122;SDS011;10222;50.848;4.336;2023-08-17T08:57:04;7.18;;;2.80;;
20122;SDS011;10222;50.848;4.336;2023-08-17T08:59:33;5.72;;;2.95;;
20122;SDS011;10222;50.848;4.336;2023-08-17T09:01:59;8.93;;;2.85;;
20122;SDS011;10222;50.848;4.336;2023-08-17T09:04:28;3.13;;;2.45;;
20122;SDS011;10222;50.848;4.336;2023-08-17T09:06:54;5.03;;;2.72;;
20122;SDS011;10222;50.848;4.336;2023-08-17T09:09:21;8.25;;;3.40;;
20122;SDS011;10222;50.848;4.336;2023-08-17T09:11:47;4.65;;;3.30;;
20122;SDS011;10222;50.848;4.336;2023-08-17T09:14:13;5.88;;;3.10;;
20122;SDS011;10222;50.848;4.336;2023-08-17T09:16:39;8.70;;;3.53;;
20122;SDS011;10222;50.848;4.336;2023-08-17T09:19:05;7.03;;;3.53;;
20122;SDS011;10222;50.848;4.336;2023-08-17T09:21:32;6.82;;;3.70;;
20122;SDS011;10222;50.848;4.336;2023-08-17T09:23:58;7.72;;;3.40;;
20122;SDS011;10222;50.848;4.336;2023-08-17T09:26:24;5.53;;;3.35;;
20122;SDS011;10222;50.848;4.336;2023-08-17T09:28:50;5.32;;;3.13;;
20122;SDS011;10222;50.848;4.336;2023-08-17T09:31:23;5.43;;;3.55;;
20122;SDS011;10222;50.848;4.336;2023-08-17T09:33:50;7.25;;;3.80;;
20122;SDS011;10222;50.848;4.336;2023-08-17T09:36:19;8.15;;;3.58;;
20122;SDS011;10222;50.848;4.336;2023-08-17T09:38:47;7.88;;;3.83;;
20122;SDS011;10222;50.848;4.336;2023-08-17T09:41:14;7.30;;;4.15;;
20122;SDS011;10222;50.848;4.336;2023-08-17T09:43:40;8.45;;;4.53;;
20122;SDS011;10222;50.848;4.336;2023-08-17T09:46:06;9.57;;;3.67;;
20122;SDS011;10222;50.848;4.336;2023-08-17T09:48:32;6.85;;;3.63;;
20122;SDS011;10222;50.848;4.336;2023-08-17T09:50:59;5.90;;;3.67;;
20122;SDS011;10222;50.848;4.336;2023-08-17T09:53:26;6.95;;;3.92;;
20122;SDS011;10222;50.848;4.336;2023-08-17T09:55:52;4.82;;;3.65;;
20122;SDS011;10222;50.848;4.336;2023-08-17T09:58:20;6.70;;;4.00;;
20122;SDS011;10222;50.848;4.336;2023-08-17T10:00:50;7.18;;;3.70;;
20122;SDS011;10222;50.848;4.336;2023-08-17T10:03:16;11.13;;;3.95;;
20122;SDS011;10222;50.848;4.336;2023-08-17T10:05:43;9.68;;;4.38;;
20122;SDS011;10222;50.848;4.336;2023-08-17T10:08:10;8.38;;;4.45;;
20122;SDS011;10222;50.848;4.336;2023-08-17T10:10:38;9.57;;;5.40;;
20122;SDS011;10222;50.848;4.336;2023-08-17T10:15:32;10.48;;;5.15;;
20122;SDS011;10222;50.848;4.336;2023-08-17T10:18:07;10.20;;;4.70;;
20122;SDS011;10222;50.848;4.336;2023-08-17T10:20:34;8.23;;;4.32;;
20122;SDS011;10222;50.848;4.336;2023-08-17T10:23:06;8.63;;;4.25;;
20122;SDS011;10222;50.848;4.336;2023-08-17T10:25:33;7.07;;;3.67;;
20122;SDS011;10222;50.848;4.336;2023-08-17T10:27:59;8.93;;;4.35;;
20122;SDS011;10222;50.848;4.336;2023-08-17T10:30:28;8.27;;;3.97;;
20122;SDS011;10222;50.848;4.336;2023-08-17T10:32:54;6.97;;;3.75;;
20122;SDS011;10222;50.848;4.336;2023-08-17T10:35:21;6.75;;;4.22;;
20122;SDS011;10222;50.848;4.336;2023-08-17T10:37:47;9.15;;;3.70;;
20122;SDS011;10222;50.848;4.336;2023-08-17T10:40:14;5.47;;;4.20;;
20122;SDS011;10222;50.848;4.336;2023-08-17T10:42:41;8.75;;;4.90;;
20122;SDS011;10222;50.848;4.336;2023-08-17T10:50:35;5.60;;;3.97;;
20122;SDS011;10222;50.848;4.336;2023-08-17T10:53:08;8.27;;;5.38;;
20122;SDS011;10222;50.848;4.336;2023-08-17T10:55:39;8.73;;;5.28;;
20122;SDS011;10222;50.848;4.336;2023-08-17T10:58:06;7.68;;;5.03;;
20122;SDS011;10222;50.848;4.336;2023-08-17T11:00:38;8.85;;;5.35;;
20122;SDS011;10222;50.848;4.336;2023-08-17T11:03:05;8.20;;;5.05;;
20122;SDS011;10222;50.848;4.336;2023-08-17T11:05:42;8.05;;;5.50;;
20122;SDS011;10222;50.848;4.336;2023-08-17T11:08:54;7.75;;;4.85;;
20122;SDS011;10222;50.848;4.336;2023-08-17T11:13:41;9.32;;;5.47;;
20122;SDS011;10222;50.848;4.336;2023-08-17T11:16:10;13.05;;;6.10;;
20122;SDS011;10222;50.848;4.336;2023-08-17T11:18:37;8.15;;;5.07;;
20122;SDS011;10222;50.848;4.336;2023-08-17T11:23:33;7.88;;;4.75;;
20122;SDS011;10222;50.848;4.336;2023-08-17T11:25:59;6.35;;;4.03;;
20122;SDS011;10222;50.848;4.336;2023-08-17T11:28:26;7.05;;;4.78;;
20122;SDS011;10222;50.848;4.336;2023-08-17T11:33:29;7.70;;;4.20;;
20122;SDS011;10222;50.848;4.336;2023-08-17T11:35:59;7.10;;;4.00;;
20122;SDS011;10222;50.848;4.336;2023-08-17T11:38:25;6.15;;;4.00;;
20122;SDS011;10222;50.848;4.336;2023-08-17T11:40:51;6.28;;;4.43;;
20122;SDS011;10222;50.848;4.336;2023-08-17T11:43:18;7.22;;;4.20;;
20122;SDS011;10222;50.848;4.336;2023-08-17T11:45:45;7.18;;;4.38;;
20122;SDS011;10222;50.848;4.336;2023-08-17T11:48:11;5.95;;;4.82;;
20122;SDS011;10222;50.848;4.336;2023-08-17T11:50:38;7.50;;;4.75;;
20122;SDS011;10222;50.848;4.336;2023-08-17T11:53:07;7.00;;;4.38;;
20122;SDS011;10222;50.848;4.336;2023-08-17T11:55:33;8.27;;;4.85;;
20122;SDS011;10222;50.848;4.336;2023-08-17T11:57:59;17.77;;;6.30;;
20122;SDS011;10222;50.848;4.336;2023-08-17T12:00:25;7.75;;;4.47;;
20122;SDS011;10222;50.848;4.336;2023-08-17T12:02:51;6.35;;;4.07;;
20122;SDS011;10222;50.848;4.336;2023-08-17T12:05:21;5.35;;;4.07;;
20122;SDS011;10222;50.848;4.336;2023-08-17T12:07:48;6.28;;;3.80;;
20122;SDS011;10222;50.848;4.336;2023-08-17T12:10:14;5.65;;;4.10;;
20122;SDS011;10222;50.848;4.336;2023-08-17T12:12:41;9.52;;;5.65;;
20122;SDS011;10222;50.848;4.336;2023-08-17T12:15:09;7.72;;;4.70;;
20122;SDS011;10222;50.848;4.336;2023-08-17T12:17:36;9.40;;;4.80;;
20122;SDS011;10222;50.848;4.336;2023-08-17T12:20:06;5.72;;;3.67;;
20122;SDS011;10222;50.848;4.336;2023-08-17T12:22:32;6.45;;;4.53;;
20122;SDS011;10222;50.848;4.336;2023-08-17T12:24:58;6.18;;;4.40;;
20122;SDS011;10222;50.848;4.336;2023-08-17T12:27:24;7.45;;;3.97;;
20122;SDS011;10222;50.848;4.336;2023-08-17T12:29:51;6.45;;;3.95;;
20122;SDS011;10222;50.848;4.336;2023-08-17T12:32:18;5.63;;;3.92;;
20122;SDS011;10222;50.848;4.336;2023-08-17T12:34:45;9.70;;;4.75;;
20122;SDS011;10222;50.848;4.336;2023-08-17T12:37:11;8.82;;;4.82;;
20122;SDS011;10222;50.848;4.336;2023-08-17T12:39:38;8.00;;;4.60;;
20122;SDS011;10222;50.848;4.336;2023-08-17T12:42:04;11.15;;;4.93;;
20122;SDS011;10222;50.848;4.336;2023-08-17T12:44:30;12.10;;;5.00;;
20122;SDS011;10222;50.848;4.336;2023-08-17T12:46:56;9.88;;;5.55;;
20122;SDS011;10222;50.848;4.336;2023-08-17T12:49:23;7.63;;;4.60;;
20122;SDS011;10222;50.848;4.336;2023-08-17T12:51:49;9.40;;;4.55;;
20122;SDS011;10222;50.848;4.336;2023-08-17T12:54:15;10.93;;;5.32;;
20122;SDS011;10222;50.848;4.336;2023-08-17T12:56:41;9.57;;;5.15;;
20122;SDS011;10222;50.848;4.336;2023-08-17T12:59:07;8.75;;;5.68;;
20122;SDS011;10222;50.848;4.336;2023-08-17T13:01:34;11.23;;;5.65;;
20122;SDS011;10222;50.848;4.336;2023-08-17T13:04:00;9.98;;;5.53;;
20122;SDS011;10222;50.848;4.336;2023-08-17T13:06:26;7.95;;;5.50;;
20122;SDS011;10222;50.848;4.336;2023-08-17T13:08:53;13.25;;;5.78;;
20122;SDS011;10222;50.848;4.336;2023-08-17T13:11:19;10.73;;;6.03;;
20122;SDS011;10222;50.848;4.336;2023-08-17T13:13:45;10.80;;;6.43;;
20122;SDS011;10222;50.848;4.336;2023-08-17T13:16:11;8.63;;;5.72;;
20122;SDS011;10222;50.848;4.336;2023-08-17T13:18:38;8.30;;;5.22;;
20122;SDS011;10222;50.848;4.336;2023-08-17T13:21:04;9.75;;;6.13;;
20122;SDS011;10222;50.848;4.336;2023-08-17T13:23:30;10.23;;;6.18;;
20122;SDS011;10222;50.848;4.336;2023-08-17T13:25:56;9.40;;;6.72;;
20122;SDS011;10222;50.848;4.336;2023-08-17T13:28:22;11.82;;;6.35;;
20122;SDS011;10222;50.848;4.336;2023-08-17T13:30:48;12.25;;;6.25;;
20122;SDS011;10222;50.848;4.336;2023-08-17T13:33:14;11.38;;;6.32;;
20122;SDS011;10222;50.848;4.336;2023-08-17T13:35:41;11.32;;;6.63;;
20122;SDS011;10222;50.848;4.336;2023-08-17T13:38:07;11.05;;;6.20;;
20122;SDS011;10222;50.848;4.336;2023-08-17T13:40:33;11.57;;;7.10;;
20122;SDS011;10222;50.848;4.336;2023-08-17T13:43:01;10.57;;;6.13;;
20122;SDS011;10222;50.848;4.336;2023-08-17T13:45:28;10.63;;;6.78;;
20122;SDS011;10222;50.848;4.336;2023-08-17T13:47:54;12.68;;;6.25;;
20122;SDS011;10222;50.848;4.336;2023-08-17T13:50:20;10.85;;;6.95;;
20122;SDS011;10222;50.848;4.336;2023-08-17T13:52:46;8.20;;;6.38;;
20122;SDS011;10222;50.848;4.336;2023-08-17T13:55:12;9.18;;;6.47;;
20122;SDS011;10222;50.848;4.336;2023-08-17T13:57:38;11.93;;;7.55;;
20122;SDS011;10222;50.848;4.336;2023-08-17T14:00:05;14.15;;;7.82;;
20122;SDS011;10222;50.848;4.336;2023-08-17T14:02:31;17.15;;;7.40;;
20122;SDS011;10222;50.848;4.336;2023-08-17T14:04:57;10.80;;;6.47;;
20122;SDS011;10222;50.848;4.336;2023-08-17T14:07:23;12.27;;;7.18;;
20122;SDS011;10222;50.848;4.336;2023-08-17T14:09:50;15.57;;;6.70;;
20122;SDS011;10222;50.848;4.336;2023-08-17T14:12:16;10.90;;;7.47;;
20122;SDS011;10222;50.848;4.336;2023-08-17T14:14:43;12.55;;;7.75;;
20122;SDS011;10222;50.848;4.336;2023-08-17T14:17:09;12.50;;;6.97;;
20122;SDS011;10222;50.848;4.336;2023-08-17T14:19:35;9.85;;;6.57;;
20122;SDS011;10222;50.848;4.336;2023-08-17T14:22:02;8.77;;;6.38;;
20122;SDS011;10222;50.848;4.336;2023-08-17T14:24:28;12.32;;;7.85;;
20122;SDS011;10222;50.848;4.336;2023-08-17T14:26:54;11.88;;;6.43;;
20122;SDS011;10222;50.848;4.336;2023-08-17T14:29:21;11.73;;;7.07;;
20122;SDS011;10222;50.848;4.336;2023-08-17T14:31:48;13.20;;;7.35;;
20122;SDS011;10222;50.848;4.336;2023-08-17T14:34:14;12.00;;;6.95;;
20122;SDS011;10222;50.848;4.336;2023-08-17T14:36:40;11.27;;;7.07;;
20122;SDS011;10222;50.848;4.336;2023-08-17T14:39:06;13.07;;;6.43;;
20122;SDS011;10222;50.848;4.336;2023-08-17T14:41:32;11.88;;;6.93;;
20122;SDS011;10222;50.848;4.336;2023-08-17T14:43:58;14.38;;;6.93;;
20122;SDS011;10222;50.848;4.336;2023-08-17T14:46:25;11.13;;;6.45;;
20122;SDS011;10222;50.848;4.336;2023-08-17T14:48:51;10.88;;;6.80;;
20122;SDS011;10222;50.848;4.336;2023-08-17T14:51:17;11.75;;;6.45;;
20122;SDS011;10222;50.848;4.336;2023-08-17T14:53:43;9.75;;;6.03;;
20122;SDS011;10222;50.848;4.336;2023-08-17T14:56:09;9.25;;;6.80;;
20122;SDS011;10222;50.848;4.336;2023-08-17T14:58:35;11.10;;;6.00;;
20122;SDS011;10222;50.848;4.336;2023-08-17T15:01:01;10.63;;;6.65;;
20122;SDS011;10222;50.848;4.336;2023-08-17T15:03:28;11.50;;;6.85;;